• Join FlightAware (Why Join?)
  • Login
  • US Flag 
06:20PM EDT


 

Airport Tracker/Info


-or-


 

Live Flight TrackerFlight Track Log ✈ C-GFEX ✈ 08-May-2013 ✈ KCVV - KPDT

Flight Track Log - Related Links

Times and Time Zones

All times are in EDT time to prevent confusion due to time zone crossing. See the C-GFEX flight status page for this flight to view local times or setup timezone preferences in your user account.

Time Position Orientation Groundspeed Altitude Reporting Facility
EDT Latitude Longitude Course Direction KTS MPH feet Rate Location/Type
03:57PM 48.5736 -122.3189 137° Southeast 166 191 8,100  Level Seattle Center
03:58PM 48.5425 -122.2708 134° Southeast 164 189 9,600 840 Climbing Seattle Center
03:59PM 48.5119 -122.2217 133° Southeast 161 185 9,900 180 Climbing Seattle Center
04:00PM 48.4747 -122.1639 134° Southeast 174 200 10,000  Climbing Seattle Center
04:01PM 48.4367 -122.1014 133° Southeast 190 219 10,000  Level Seattle Center
04:02PM 48.4006 -122.0403 132° Southeast 197 227 10,000 -60 Level Seattle Center
04:03PM -19.8069 -160.1914 137° Southeast  Level Estimated
04:03PM 48.3619 -121.9825 135° Southeast 198 228 9,900  Level Seattle Center
04:04PM 48.3208 -121.9264 138° Southeast 201 231 10,000  Climbing Seattle Center
04:05PM 48.2714 -121.8647 140° Southeast 195 224 10,000 -120 Level Seattle Center
04:06PM 48.2286 -121.8111 140° Southeast 200 230 9,800 -60 Descending Seattle Center
04:07PM 48.1878 -121.7561 138° Southeast 200 230 9,900 60 Climbing Seattle Center
04:08PM 48.1478 -121.7072 141° Southeast 190 219 10,000  Climbing Seattle Center
04:09PM 48.1069 -121.6572 141° Southeast 190 219 9,900 -120 Descending Seattle Center
04:10PM 48.0644 -121.6072 142° Southeast 194 223 9,800 -120 Descending Seattle Center
04:11PM 48.0222 -121.5553 142° Southeast 198 228 9,700 -120 Descending Seattle Center
04:12PM 48.0273 -121.5631 142° Southeast  Level FlightAware Approximate
04:12PM 47.9794 -121.5061 142° Southeast 197 227 9,600  Level Seattle Center
04:13PM 47.9375 -121.4594 143° Southeast 191 220 9,700  Climbing Seattle Center
04:14PM 47.8947 -121.4106 143° Southeast 195 224 9,700  Level Seattle Center
04:15PM 47.8428 -121.3544 144° Southeast 194 223 9,700  Level Seattle Center
04:17PM 47.8002 -121.3038 141° Southeast  Level FlightAware Approximate
04:17PM 47.7575 -121.2592 141° Southeast 189 217 9,800  Level Seattle Center
04:18PM 47.7153 -121.2164 146° Southeast 191 220 9,900  Climbing Seattle Center
04:19PM 47.6742 -121.1667 141° Southeast 193 222 9,800 -120 Descending Seattle Center
04:20PM 47.6308 -121.1189 143° Southeast 195 224 9,700 -60 Descending Seattle Center
04:21PM 47.5897 -121.0711 142° Southeast 192 221 9,700  Level Seattle Center
04:22PM 47.5469 -121.0256 144° Southeast 192 221 9,700 -60 Level Seattle Center
04:23PM 47.5069 -120.9744 139° Southeast 193 222 9,600  Descending Seattle Center
04:24PM 47.4608 -120.9111 137° Southeast 191 220 9,700  Climbing Seattle Center
04:26PM 47.4228 -120.8622 139° Southeast 189 217 9,700 -180 Level Seattle Center
04:27PM 47.3886 -120.8175 138° Southeast 188 216 9,400 -120 Descending Seattle Center
04:28PM 47.3458 -120.7533 135° Southeast 185 213 9,500  Climbing Seattle Center
04:29PM 47.3092 -120.7014 136° Southeast 185 213 9,500  Level Seattle Center
04:30PM 47.2697 -120.6469 137° Southeast 187 215 9,500  Level Seattle Center
04:31PM 47.2314 -120.5969 138° Southeast 185 213 9,500  Level Seattle Center
04:32PM 47.1903 -120.5492 142° Southeast 189 217 9,500  Level Seattle Center
04:33PM 47.1500 -120.5006 141° Southeast 188 216 9,500  Level Seattle Center
04:34PM 47.1128 -120.4533 139° Southeast 186 214 9,500 -60 Level Seattle Center
04:35PM 47.0714 -120.4044 141° Southeast 190 219 9,400  Descending Seattle Center
04:36PM 47.0272 -120.3536 142° Southeast 185 213 9,600  Climbing Seattle Center
04:37PM 46.9844 -120.3117 146° Southeast 184 212 9,500 -60 Descending Seattle Center
04:38PM 46.9447 -120.2633 140° Southeast 187 215 9,500  Level Seattle Center
04:39PM 46.9044 -120.2167 142° Southeast 187 215 9,500 -60 Level Seattle Center
04:40PM 46.8633 -120.1708 143° Southeast 187 215 9,400  Descending Seattle Center
04:41PM 46.8211 -120.1267 144° Southeast 188 216 9,500  Climbing Seattle Center
04:42PM 46.7783 -120.0850 146° Southeast 185 213 9,500 -60 Level Seattle Center
04:43PM 46.7372 -120.0392 143° Southeast 186 214 9,400  Descending Seattle Center
04:44PM 46.6969 -119.9942 143° Southeast 184 212 9,600  Climbing Seattle Center
04:45PM 46.6569 -119.9506 143° Southeast 180 207 9,500 -60 Descending Seattle Center
04:46PM 46.6072 -119.8950 142° Southeast 188 216 9,500 60 Level Seattle Center
04:47PM 46.5700 -119.8453 137° Southeast 184 212 9,700 60 Climbing Seattle Center
04:48PM 46.5311 -119.7972 140° Southeast 184 212 9,700 -360 Level Seattle Center
04:50PM 46.4489 -119.6947 139° Southeast 198 228 8,700 -540 Descending Seattle Center
04:51PM 46.4081 -119.6403 137° Southeast 199 229 8,200 -600 Descending Seattle Center
04:52PM 46.3656 -119.5875 139° Southeast 202 232 7,600 -540 Descending Seattle Center
04:53PM 46.3217 -119.5333 140° Southeast 205 236 7,200 -480 Descending Seattle Center
04:54PM 46.2789 -119.4792 139° Southeast 206 237 6,700 -420 Descending Seattle Center
04:55PM 46.2347 -119.4278 141° Southeast 206 237 6,400 -120 Descending Seattle Center
04:56PM 46.1917 -119.3789 142° Southeast 200 230 6,500  Climbing Seattle Center
04:57PM 46.1494 -119.3328 143° Southeast 196 226 6,500 -60 Level Seattle Center
04:58PM 46.1056 -119.2858 143° Southeast 195 224 6,400 -60 Descending Seattle Center
04:59PM 46.0619 -119.2392 143° Southeast 196 226 6,400  Level Seattle Center
05:00PM 46.0100 -119.1856 144° Southeast 193 222 6,500  Climbing Seattle Center
05:01PM 45.9667 -119.1378 143° Southeast 194 223 6,400  Descending Seattle Center
05:02PM 45.9214 -119.0967 148° Southeast 194 223 6,500 120 Climbing Seattle Center
05:03PM 45.8814 -119.0464 139° Southeast 192 221 6,700  Climbing Seattle Center
05:04PM 45.8378 -119.0031 145° Southeast 192 221 6,600  Descending Seattle Center
05:05PM 45.7947 -118.9550 142° Southeast 194 223 6,700 -60 Climbing Seattle Center
05:06PM 45.7519 -118.9047 141° Southeast 196 226 6,500 -120 Descending Seattle Center
05:07PM 45.7089 -118.8569 142° Southeast 197 227 6,500 -300 Level Seattle Center
05:08PM 45.6797 -118.7864 121° Southeast 222 255 5,900 -1,980 Descending Seattle Center
05:09PM 45.6717 -118.8436 259° West 247 284 2,500 -3,360 Descending Seattle Center